Levent, Turkey

4:20 AM +03 on April 24, 2017 (GMT +0300)
| | Change Station

Elev -9999 ft 0.00 °N, 0.00 °E | Updated 0 second ago

Rain
Rain
°F
Feels Like °F
N
Wind Variable Wind from North
Gusts mph

Today
High -- | Low -- °F
--% Chance of Precip.
Yesterday
High -- | Low -- °F
Precip. -- in
Pressure 30.12 in
Visibility 6.2 miles
Clouds Scattered Clouds 4000 ft
Mostly Cloudy 7000 ft
Dew Point Not available.
Humidity Not available.
Rainfall --
Snow Depth Not available.
6:11 AM 7:53 PM
Waning Crescent, 8% visible
METAR LTBA 240050Z 22002KT 9999 -SHRA SCT040 BKN070 09/07 Q1020 NOSIG RMK RWY17L 22004KT RWY05 22001KT RWY23 23004KT
Pressure 30.12 in
Visibility 6.2 miles
Clouds Scattered Clouds 4000 ft
Mostly Cloudy 7000 ft
Dew Point Not available.
Humidity Not available.
Rainfall --
Snow Depth Not available.
6:11 AM 7:53 PM
Waning Crescent, 8% visible
METAR LTBA 240050Z 22002KT 9999 -SHRA SCT040 BKN070 09/07 Q1020 NOSIG RMK RWY17L 22004KT RWY05 22001KT RWY23 23004KT

Get Severe Weather Alerts

Thanks for signing up!

Be on the lookout for a verification email in your inbox.

You'll start receiving the daily forecast at 8 AM.

×

10-Day Weather Forecast

×

Almanac

Astronomy

Apr. 24, 2017 Rise Set
Actual Time
Civil Twilight
Nautical Twilight
Astronomical Twilight
Moon
Length of Visible Light
Length of Day
Tomorrow will be .
, % of the Moon is Illuminated

Today's Extremes

Country Highs Country Lows

Community

WunderPhotos

WunderBlog® & News

Nearby

Air Quality

  Air Quality AQ Index Pollutant
Not available.

Snow Depth

Station Depth Elevation

Earthquake Activity

City Distance Mag. Time & Date
Minimum magnitude displayed is 2.5.

Coastal Water Temperatures

Place Temperature

Stations

Nearby Weather Stations

Station Location Temp. Windchill Dew Point Humidity Wind Precip. Elev Updated Type